sensor_id;sensor_type;location;lat;lon;timestamp;temperature;humidity
975;DHT22;6115;49.296;10.602;2022-09-09T00:10:23;12.60;75.30
975;DHT22;6115;49.296;10.602;2022-09-09T00:15:39;12.50;75.20
975;DHT22;6115;49.296;10.602;2022-09-09T00:21:00;12.40;75.50
975;DHT22;6115;49.296;10.602;2022-09-09T00:26:08;12.30;75.80
975;DHT22;6115;49.296;10.602;2022-09-09T00:31:14;12.20;76.10
975;DHT22;6115;49.296;10.602;2022-09-09T00:36:20;12.10;76.00
975;DHT22;6115;49.296;10.602;2022-09-09T00:46:50;12.20;76.10
975;DHT22;6115;49.296;10.602;2022-09-09T00:57:31;12.10;76.00
975;DHT22;6115;49.296;10.602;2022-09-09T01:08:00;12.10;76.10
975;DHT22;6115;49.296;10.602;2022-09-09T01:13:08;12.10;76.00
975;DHT22;6115;49.296;10.602;2022-09-09T01:18:17;12.10;76.10
975;DHT22;6115;49.296;10.602;2022-09-09T01:24:00;12.20;76.10
975;DHT22;6115;49.296;10.602;2022-09-09T01:28:54;12.30;76.20
975;DHT22;6115;49.296;10.602;2022-09-09T01:33:55;12.30;76.30
975;DHT22;6115;49.296;10.602;2022-09-09T01:38:56;12.20;76.20
975;DHT22;6115;49.296;10.602;2022-09-09T01:43:56;12.20;76.10
975;DHT22;6115;49.296;10.602;2022-09-09T01:48:59;12.20;76.10
975;DHT22;6115;49.296;10.602;2022-09-09T01:54:01;12.20;76.10
975;DHT22;6115;49.296;10.602;2022-09-09T02:04:24;12.00;76.60
975;DHT22;6115;49.296;10.602;2022-09-09T02:09:30;12.10;76.40
975;DHT22;6115;49.296;10.602;2022-09-09T02:14:35;12.10;76.40
975;DHT22;6115;49.296;10.602;2022-09-09T02:19:49;12.00;76.60
975;DHT22;6115;49.296;10.602;2022-09-09T02:24:56;12.20;76.40
975;DHT22;6115;49.296;10.602;2022-09-09T02:30:01;12.30;76.20
975;DHT22;6115;49.296;10.602;2022-09-09T02:35:07;12.30;76.30
975;DHT22;6115;49.296;10.602;2022-09-09T02:40:11;12.40;76.60
975;DHT22;6115;49.296;10.602;2022-09-09T02:45:15;12.60;77.00
975;DHT22;6115;49.296;10.602;2022-09-09T02:50:33;12.70;77.30
975;DHT22;6115;49.296;10.602;2022-09-09T02:55:37;12.70;77.30
975;DHT22;6115;49.296;10.602;2022-09-09T03:00:39;12.90;77.10
975;DHT22;6115;49.296;10.602;2022-09-09T03:05:40;13.00;77.40
975;DHT22;6115;49.296;10.602;2022-09-09T03:10:41;13.10;77.30
975;DHT22;6115;49.296;10.602;2022-09-09T03:15:42;13.10;77.00
975;DHT22;6115;49.296;10.602;2022-09-09T03:20:42;13.20;77.10
975;DHT22;6115;49.296;10.602;2022-09-09T03:25:47;13.30;76.70
975;DHT22;6115;49.296;10.602;2022-09-09T03:30:48;13.40;76.80
975;DHT22;6115;49.296;10.602;2022-09-09T03:35:49;13.40;76.80
975;DHT22;6115;49.296;10.602;2022-09-09T03:40:55;13.30;77.30
975;DHT22;6115;49.296;10.602;2022-09-09T03:45:57;13.30;77.30
975;DHT22;6115;49.296;10.602;2022-09-09T03:50:58;13.30;76.90
975;DHT22;6115;49.296;10.602;2022-09-09T03:56:01;13.30;76.70
975;DHT22;6115;49.296;10.602;2022-09-09T04:01:04;13.20;76.80
975;DHT22;6115;49.296;10.602;2022-09-09T04:06:06;13.10;77.00
975;DHT22;6115;49.296;10.602;2022-09-09T04:11:08;13.10;76.60
975;DHT22;6115;49.296;10.602;2022-09-09T04:16:11;13.10;76.20
975;DHT22;6115;49.296;10.602;2022-09-09T04:21:13;13.10;76.00
975;DHT22;6115;49.296;10.602;2022-09-09T04:26:14;13.10;76.00
975;DHT22;6115;49.296;10.602;2022-09-09T04:31:20;13.10;75.90
975;DHT22;6115;49.296;10.602;2022-09-09T04:36:23;13.00;75.80
975;DHT22;6115;49.296;10.602;2022-09-09T04:41:24;13.00;75.90
975;DHT22;6115;49.296;10.602;2022-09-09T04:46:24;12.90;75.90
975;DHT22;6115;49.296;10.602;2022-09-09T04:51:25;12.90;75.80
975;DHT22;6115;49.296;10.602;2022-09-09T04:56:27;12.90;76.00
975;DHT22;6115;49.296;10.602;2022-09-09T05:01:28;12.90;76.30
975;DHT22;6115;49.296;10.602;2022-09-09T05:06:29;13.10;76.70
975;DHT22;6115;49.296;10.602;2022-09-09T05:11:33;13.20;76.50
975;DHT22;6115;49.296;10.602;2022-09-09T05:16:36;13.30;76.20
975;DHT22;6115;49.296;10.602;2022-09-09T05:21:37;13.50;75.50
975;DHT22;6115;49.296;10.602;2022-09-09T05:26:38;13.50;74.60
975;DHT22;6115;49.296;10.602;2022-09-09T05:31:38;13.60;74.40
975;DHT22;6115;49.296;10.602;2022-09-09T05:36:39;13.50;74.00
975;DHT22;6115;49.296;10.602;2022-09-09T05:41:40;13.30;74.60
975;DHT22;6115;49.296;10.602;2022-09-09T05:46:40;13.30;74.90
975;DHT22;6115;49.296;10.602;2022-09-09T05:51:41;13.20;75.10
975;DHT22;6115;49.296;10.602;2022-09-09T05:56:43;13.30;74.80
975;DHT22;6115;49.296;10.602;2022-09-09T06:01:43;13.30;74.80
975;DHT22;6115;49.296;10.602;2022-09-09T06:06:45;13.40;74.80
975;DHT22;6115;49.296;10.602;2022-09-09T06:11:46;13.40;75.00
975;DHT22;6115;49.296;10.602;2022-09-09T06:16:46;13.50;74.40
975;DHT22;6115;49.296;10.602;2022-09-09T06:21:47;13.70;74.30
975;DHT22;6115;49.296;10.602;2022-09-09T06:26:48;13.80;74.30
975;DHT22;6115;49.296;10.602;2022-09-09T06:31:48;14.00;73.30
975;DHT22;6115;49.296;10.602;2022-09-09T06:36:49;14.20;73.30
975;DHT22;6115;49.296;10.602;2022-09-09T06:41:50;14.40;73.50
975;DHT22;6115;49.296;10.602;2022-09-09T06:46:53;14.70;72.40
975;DHT22;6115;49.296;10.602;2022-09-09T06:51:53;14.90;70.50
975;DHT22;6115;49.296;10.602;2022-09-09T06:56:54;15.10;69.30
975;DHT22;6115;49.296;10.602;2022-09-09T07:01:55;15.30;67.90
975;DHT22;6115;49.296;10.602;2022-09-09T07:06:57;15.60;66.60
975;DHT22;6115;49.296;10.602;2022-09-09T07:11:58;15.90;65.10
975;DHT22;6115;49.296;10.602;2022-09-09T07:16:59;16.10;63.40
975;DHT22;6115;49.296;10.602;2022-09-09T07:22:00;16.40;62.30
975;DHT22;6115;49.296;10.602;2022-09-09T07:27:02;16.60;61.40
975;DHT22;6115;49.296;10.602;2022-09-09T07:32:03;16.80;59.90
975;DHT22;6115;49.296;10.602;2022-09-09T07:37:04;17.00;59.30
975;DHT22;6115;49.296;10.602;2022-09-09T07:42:05;17.20;59.70
975;DHT22;6115;49.296;10.602;2022-09-09T07:47:07;17.40;58.80
975;DHT22;6115;49.296;10.602;2022-09-09T07:52:07;17.60;58.10
975;DHT22;6115;49.296;10.602;2022-09-09T07:57:08;17.80;57.20
975;DHT22;6115;49.296;10.602;2022-09-09T08:02:09;17.90;56.60
975;DHT22;6115;49.296;10.602;2022-09-09T08:07:09;18.20;56.90
975;DHT22;6115;49.296;10.602;2022-09-09T08:12:10;18.40;55.90
975;DHT22;6115;49.296;10.602;2022-09-09T08:17:13;18.60;56.30
975;DHT22;6115;49.296;10.602;2022-09-09T08:22:14;18.70;55.00
975;DHT22;6115;49.296;10.602;2022-09-09T08:27:14;18.70;55.10
975;DHT22;6115;49.296;10.602;2022-09-09T08:32:15;18.90;55.60
975;DHT22;6115;49.296;10.602;2022-09-09T08:37:16;19.00;53.70
975;DHT22;6115;49.296;10.602;2022-09-09T08:42:43;19.30;53.10
975;DHT22;6115;49.296;10.602;2022-09-09T08:47:53;19.30;52.30
975;DHT22;6115;49.296;10.602;2022-09-09T08:53:02;19.60;51.90
975;DHT22;6115;49.296;10.602;2022-09-09T08:58:26;19.80;50.70
975;DHT22;6115;49.296;10.602;2022-09-09T09:19:14;20.60;48.90
975;DHT22;6115;49.296;10.602;2022-09-09T09:24:50;20.60;48.10
975;DHT22;6115;49.296;10.602;2022-09-09T09:29:54;20.40;49.10
975;DHT22;6115;49.296;10.602;2022-09-09T09:34:58;20.80;49.00
975;DHT22;6115;49.296;10.602;2022-09-09T09:40:13;20.80;48.70
975;DHT22;6115;49.296;10.602;2022-09-09T09:45:35;20.80;48.00
975;DHT22;6115;49.296;10.602;2022-09-09T09:50:51;21.20;47.40
975;DHT22;6115;49.296;10.602;2022-09-09T09:56:02;21.60;47.70
975;DHT22;6115;49.296;10.602;2022-09-09T10:01:02;22.20;45.90
975;DHT22;6115;49.296;10.602;2022-09-09T10:06:04;22.30;45.70
975;DHT22;6115;49.296;10.602;2022-09-09T10:11:24;22.60;43.70
975;DHT22;6115;49.296;10.602;2022-09-09T10:27:11;22.30;44.90
975;DHT22;6115;49.296;10.602;2022-09-09T10:48:26;23.60;41.70
975;DHT22;6115;49.296;10.602;2022-09-09T10:58:48;23.50;43.70
975;DHT22;6115;49.296;10.602;2022-09-09T11:04:05;23.90;41.90
975;DHT22;6115;49.296;10.602;2022-09-09T11:09:20;24.40;41.50
975;DHT22;6115;49.296;10.602;2022-09-09T11:14:28;23.40;39.90
975;DHT22;6115;49.296;10.602;2022-09-09T11:19:44;23.20;41.80
975;DHT22;6115;49.296;10.602;2022-09-09T11:30:20;22.70;41.20
975;DHT22;6115;49.296;10.602;2022-09-09T11:41:03;23.00;41.10
975;DHT22;6115;49.296;10.602;2022-09-09T11:46:05;23.70;39.90
975;DHT22;6115;49.296;10.602;2022-09-09T11:56:26;23.70;41.10
975;DHT22;6115;49.296;10.602;2022-09-09T12:01:30;23.60;40.60
975;DHT22;6115;49.296;10.602;2022-09-09T12:06:52;23.90;40.70
975;DHT22;6115;49.296;10.602;2022-09-09T12:12:49;23.50;40.60
975;DHT22;6115;49.296;10.602;2022-09-09T12:17:28;22.90;42.00
975;DHT22;6115;49.296;10.602;2022-09-09T12:22:54;19.30;54.90
975;DHT22;6115;49.296;10.602;2022-09-09T12:28:11;16.30;57.70
975;DHT22;6115;49.296;10.602;2022-09-09T12:33:16;16.30;65.40
975;DHT22;6115;49.296;10.602;2022-09-09T12:38:34;16.80;69.50
975;DHT22;6115;49.296;10.602;2022-09-09T12:43:36;17.70;71.50
975;DHT22;6115;49.296;10.602;2022-09-09T12:48:39;18.30;70.10
975;DHT22;6115;49.296;10.602;2022-09-09T12:53:42;18.50;68.40
975;DHT22;6115;49.296;10.602;2022-09-09T12:58:47;18.90;68.10
975;DHT22;6115;49.296;10.602;2022-09-09T13:03:49;19.30;69.00
975;DHT22;6115;49.296;10.602;2022-09-09T13:08:54;19.80;64.60
975;DHT22;6115;49.296;10.602;2022-09-09T13:13:56;19.90;62.50
975;DHT22;6115;49.296;10.602;2022-09-09T13:19:02;20.10;63.20
975;DHT22;6115;49.296;10.602;2022-09-09T13:24:27;20.10;62.60
975;DHT22;6115;49.296;10.602;2022-09-09T13:29:31;20.30;64.70
975;DHT22;6115;49.296;10.602;2022-09-09T13:34:33;20.20;63.90
975;DHT22;6115;49.296;10.602;2022-09-09T13:39:36;20.20;61.20
975;DHT22;6115;49.296;10.602;2022-09-09T13:44:39;20.00;59.80
975;DHT22;6115;49.296;10.602;2022-09-09T13:49:40;19.70;58.80
975;DHT22;6115;49.296;10.602;2022-09-09T13:54:41;19.30;56.90
975;DHT22;6115;49.296;10.602;2022-09-09T13:59:41;18.60;57.20
975;DHT22;6115;49.296;10.602;2022-09-09T14:04:42;18.30;60.50
975;DHT22;6115;49.296;10.602;2022-09-09T14:09:42;17.60;60.40
975;DHT22;6115;49.296;10.602;2022-09-09T14:14:43;17.00;61.80
975;DHT22;6115;49.296;10.602;2022-09-09T14:19:44;17.00;62.80
975;DHT22;6115;49.296;10.602;2022-09-09T14:24:46;16.80;62.70
975;DHT22;6115;49.296;10.602;2022-09-09T14:29:46;16.50;65.00
975;DHT22;6115;49.296;10.602;2022-09-09T14:34:47;16.90;66.90
975;DHT22;6115;49.296;10.602;2022-09-09T14:39:49;17.20;64.30
975;DHT22;6115;49.296;10.602;2022-09-09T14:44:50;17.60;59.00
975;DHT22;6115;49.296;10.602;2022-09-09T14:49:51;18.00;64.80
975;DHT22;6115;49.296;10.602;2022-09-09T14:54:52;19.50;60.20
975;DHT22;6115;49.296;10.602;2022-09-09T14:59:52;20.60;54.60
975;DHT22;6115;49.296;10.602;2022-09-09T15:04:53;20.90;52.10
975;DHT22;6115;49.296;10.602;2022-09-09T15:09:57;20.50;48.50
975;DHT22;6115;49.296;10.602;2022-09-09T15:14:58;20.70;49.20
975;DHT22;6115;49.296;10.602;2022-09-09T15:19:58;21.20;46.40
975;DHT22;6115;49.296;10.602;2022-09-09T15:24:59;21.20;46.80
975;DHT22;6115;49.296;10.602;2022-09-09T15:29:59;20.60;48.90
975;DHT22;6115;49.296;10.602;2022-09-09T15:35:01;20.10;47.70
975;DHT22;6115;49.296;10.602;2022-09-09T15:40:02;19.90;49.50
975;DHT22;6115;49.296;10.602;2022-09-09T15:45:03;19.60;49.70
975;DHT22;6115;49.296;10.602;2022-09-09T15:50:05;20.00;50.00
975;DHT22;6115;49.296;10.602;2022-09-09T15:55:06;20.30;49.10
975;DHT22;6115;49.296;10.602;2022-09-09T16:00:09;20.20;49.70
975;DHT22;6115;49.296;10.602;2022-09-09T16:05:10;20.20;48.20
975;DHT22;6115;49.296;10.602;2022-09-09T16:10:10;20.60;47.60
975;DHT22;6115;49.296;10.602;2022-09-09T16:15:13;20.60;48.70
975;DHT22;6115;49.296;10.602;2022-09-09T16:20:14;20.80;47.20
975;DHT22;6115;49.296;10.602;2022-09-09T16:25:15;20.50;47.70
975;DHT22;6115;49.296;10.602;2022-09-09T16:30:15;20.20;47.10
975;DHT22;6115;49.296;10.602;2022-09-09T16:35:16;20.00;47.30
975;DHT22;6115;49.296;10.602;2022-09-09T16:40:16;19.90;47.90
975;DHT22;6115;49.296;10.602;2022-09-09T16:45:17;19.80;49.10
975;DHT22;6115;49.296;10.602;2022-09-09T16:50:18;19.70;48.50
975;DHT22;6115;49.296;10.602;2022-09-09T16:55:19;19.70;49.10
975;DHT22;6115;49.296;10.602;2022-09-09T17:00:20;19.80;49.90
975;DHT22;6115;49.296;10.602;2022-09-09T17:05:23;19.80;49.90
975;DHT22;6115;49.296;10.602;2022-09-09T17:10:25;19.60;49.70
975;DHT22;6115;49.296;10.602;2022-09-09T17:15:25;19.50;49.60
975;DHT22;6115;49.296;10.602;2022-09-09T17:20:26;19.50;49.60
975;DHT22;6115;49.296;10.602;2022-09-09T17:25:27;19.40;51.20
975;DHT22;6115;49.296;10.602;2022-09-09T17:30:27;19.30;52.50
975;DHT22;6115;49.296;10.602;2022-09-09T17:35:28;19.10;54.50
975;DHT22;6115;49.296;10.602;2022-09-09T17:40:28;18.60;56.10
975;DHT22;6115;49.296;10.602;2022-09-09T17:45:29;18.40;57.90
975;DHT22;6115;49.296;10.602;2022-09-09T17:50:30;16.80;62.30
975;DHT22;6115;49.296;10.602;2022-09-09T17:55:33;15.30;64.40
975;DHT22;6115;49.296;10.602;2022-09-09T18:00:33;14.50;68.10
975;DHT22;6115;49.296;10.602;2022-09-09T18:05:35;14.40;70.00
975;DHT22;6115;49.296;10.602;2022-09-09T18:10:36;14.40;71.70
975;DHT22;6115;49.296;10.602;2022-09-09T18:15:37;14.20;72.20
975;DHT22;6115;49.296;10.602;2022-09-09T18:20:39;13.90;73.70
975;DHT22;6115;49.296;10.602;2022-09-09T18:25:40;13.80;73.50
975;DHT22;6115;49.296;10.602;2022-09-09T18:30:41;13.70;75.10
975;DHT22;6115;49.296;10.602;2022-09-09T18:35:41;13.70;75.50
975;DHT22;6115;49.296;10.602;2022-09-09T18:40:43;13.50;75.50
975;DHT22;6115;49.296;10.602;2022-09-09T18:45:43;13.50;76.00
975;DHT22;6115;49.296;10.602;2022-09-09T18:50:44;13.60;77.00
975;DHT22;6115;49.296;10.602;2022-09-09T18:55:45;13.60;77.60
975;DHT22;6115;49.296;10.602;2022-09-09T19:00:45;13.70;77.70
975;DHT22;6115;49.296;10.602;2022-09-09T19:05:46;13.60;78.30
975;DHT22;6115;49.296;10.602;2022-09-09T19:10:47;13.50;78.90
975;DHT22;6115;49.296;10.602;2022-09-09T19:15:47;13.40;79.30
975;DHT22;6115;49.296;10.602;2022-09-09T19:20:48;13.40;80.10
975;DHT22;6115;49.296;10.602;2022-09-09T19:25:48;13.30;80.60
975;DHT22;6115;49.296;10.602;2022-09-09T19:30:49;13.30;81.60
975;DHT22;6115;49.296;10.602;2022-09-09T19:36:00;13.40;82.10
975;DHT22;6115;49.296;10.602;2022-09-09T19:41:07;13.40;82.10
975;DHT22;6115;49.296;10.602;2022-09-09T19:46:10;13.50;82.20
975;DHT22;6115;49.296;10.602;2022-09-09T19:51:21;13.50;82.30
975;DHT22;6115;49.296;10.602;2022-09-09T19:56:24;13.40;82.10
975;DHT22;6115;49.296;10.602;2022-09-09T20:01:28;13.40;81.80
975;DHT22;6115;49.296;10.602;2022-09-09T20:06:34;13.30;81.60
975;DHT22;6115;49.296;10.602;2022-09-09T20:11:35;13.30;82.50
975;DHT22;6115;49.296;10.602;2022-09-09T20:16:37;13.40;81.50
975;DHT22;6115;49.296;10.602;2022-09-09T20:21:43;13.20;81.80
975;DHT22;6115;49.296;10.602;2022-09-09T20:26:45;13.30;81.90
975;DHT22;6115;49.296;10.602;2022-09-09T20:31:47;13.30;82.00
975;DHT22;6115;49.296;10.602;2022-09-09T20:36:48;13.30;82.00
975;DHT22;6115;49.296;10.602;2022-09-09T20:41:50;13.30;81.60
975;DHT22;6115;49.296;10.602;2022-09-09T20:46:52;13.40;81.70
975;DHT22;6115;49.296;10.602;2022-09-09T20:51:56;13.30;81.90
975;DHT22;6115;49.296;10.602;2022-09-09T20:56:57;13.30;81.70
975;DHT22;6115;49.296;10.602;2022-09-09T21:01:59;13.30;81.70
975;DHT22;6115;49.296;10.602;2022-09-09T21:07:01;13.30;81.70
975;DHT22;6115;49.296;10.602;2022-09-09T21:12:03;13.40;81.60
975;DHT22;6115;49.296;10.602;2022-09-09T21:17:04;13.30;81.70
975;DHT22;6115;49.296;10.602;2022-09-09T21:22:04;13.20;82.00
975;DHT22;6115;49.296;10.602;2022-09-09T21:27:05;13.20;82.00
975;DHT22;6115;49.296;10.602;2022-09-09T21:32:05;13.10;81.90
975;DHT22;6115;49.296;10.602;2022-09-09T21:37:06;13.00;81.70
975;DHT22;6115;49.296;10.602;2022-09-09T21:42:08;13.10;81.90
975;DHT22;6115;49.296;10.602;2022-09-09T21:47:08;13.10;81.80
975;DHT22;6115;49.296;10.602;2022-09-09T21:52:09;13.20;81.90
975;DHT22;6115;49.296;10.602;2022-09-09T21:57:10;13.10;81.90
975;DHT22;6115;49.296;10.602;2022-09-09T22:02:13;13.10;81.90
975;DHT22;6115;49.296;10.602;2022-09-09T22:07:14;13.20;81.90
975;DHT22;6115;49.296;10.602;2022-09-09T22:12:16;13.10;81.80
975;DHT22;6115;49.296;10.602;2022-09-09T22:17:17;13.10;81.80
975;DHT22;6115;49.296;10.602;2022-09-09T22:22:20;13.10;81.90
975;DHT22;6115;49.296;10.602;2022-09-09T22:27:21;13.30;82.30
975;DHT22;6115;49.296;10.602;2022-09-09T22:32:21;13.40;82.10
975;DHT22;6115;49.296;10.602;2022-09-09T22:37:22;13.40;82.40
975;DHT22;6115;49.296;10.602;2022-09-09T22:42:22;13.50;82.30
975;DHT22;6115;49.296;10.602;2022-09-09T22:47:23;13.50;82.30
975;DHT22;6115;49.296;10.602;2022-09-09T22:52:23;13.50;81.90
975;DHT22;6115;49.296;10.602;2022-09-09T22:57:25;13.50;82.30
975;DHT22;6115;49.296;10.602;2022-09-09T23:02:25;13.50;82.20
975;DHT22;6115;49.296;10.602;2022-09-09T23:07:27;13.50;82.30
975;DHT22;6115;49.296;10.602;2022-09-09T23:12:27;13.50;81.80
975;DHT22;6115;49.296;10.602;2022-09-09T23:17:29;13.50;81.50
975;DHT22;6115;49.296;10.602;2022-09-09T23:22:32;13.30;81.20
975;DHT22;6115;49.296;10.602;2022-09-09T23:27:35;13.10;81.90
975;DHT22;6115;49.296;10.602;2022-09-09T23:32:37;12.90;81.60
975;DHT22;6115;49.296;10.602;2022-09-09T23:37:38;12.90;82.20
975;DHT22;6115;49.296;10.602;2022-09-09T23:42:39;12.90;82.20
975;DHT22;6115;49.296;10.602;2022-09-09T23:47:40;12.90;82.30
975;DHT22;6115;49.296;10.602;2022-09-09T23:52:40;12.90;82.40
975;DHT22;6115;49.296;10.602;2022-09-09T23:57:43;12.80;82.50
